createdAt,value
2022-12-20T00:01:46.820Z,317.74
2022-12-20T00:06:53.909Z,317.74
2022-12-20T00:12:01.302Z,317.81
2022-12-20T00:17:08.436Z,318.52
2022-12-20T00:22:15.623Z,319.34
2022-12-20T00:27:22.905Z,318.83
2022-12-20T00:32:30.178Z,318.89
2022-12-20T00:37:37.675Z,318.92
2022-12-20T00:42:46.405Z,319.26
2022-12-20T00:47:53.565Z,318.51
2022-12-20T00:53:00.804Z,318.33
2022-12-20T00:58:08.108Z,319.86
2022-12-20T01:03:15.533Z,320.30
2022-12-20T01:08:22.593Z,321.72
2022-12-20T01:13:29.868Z,320.56
2022-12-20T01:18:38.230Z,319.65
2022-12-20T01:23:45.452Z,319.55
2022-12-20T01:28:52.795Z,320.72
2022-12-20T01:33:59.967Z,322.13
2022-12-20T01:39:07.127Z,320.56
2022-12-20T01:44:14.397Z,320.22
2022-12-20T01:49:21.550Z,321.93
2022-12-20T01:54:28.795Z,322.24
2022-12-20T01:59:35.995Z,322.38
2022-12-20T02:04:43.185Z,324.07
2022-12-20T02:09:50.436Z,325.12
2022-12-20T02:14:59.375Z,323.44
2022-12-20T02:20:06.528Z,323.26
2022-12-20T02:25:13.766Z,324.49
2022-12-20T02:30:20.991Z,324.27
2022-12-20T02:35:28.170Z,325.19
2022-12-20T02:40:35.366Z,325.15
2022-12-20T02:45:42.629Z,324.14
2022-12-20T02:50:49.827Z,322.86
2022-12-20T02:55:57.045Z,323.52
2022-12-20T03:01:04.582Z,323.73
2022-12-20T03:06:11.489Z,325.24
2022-12-20T03:11:18.700Z,324.69
2022-12-20T03:16:26.059Z,324.30
2022-12-20T03:21:33.125Z,323.34
2022-12-20T03:26:40.339Z,323.54
2022-12-20T03:31:47.567Z,325.21
2022-12-20T03:36:54.759Z,326.04
2022-12-20T03:42:01.947Z,327.03
2022-12-20T03:47:09.159Z,326.59
2022-12-20T03:52:16.359Z,326.84
2022-12-20T03:57:25.478Z,327.33
2022-12-20T04:02:32.893Z,327.53
2022-12-20T04:07:39.897Z,327.47
2022-12-20T04:12:47.076Z,327.13
2022-12-20T04:17:54.356Z,327.46
2022-12-20T04:23:01.553Z,328.77
2022-12-20T04:28:08.757Z,329.34
2022-12-20T04:33:15.954Z,329.80
2022-12-20T04:38:23.163Z,330.53
2022-12-20T04:43:30.362Z,330.28
2022-12-20T04:48:56.383Z,330.31
2022-12-20T04:53:44.909Z,330.80
2022-12-20T04:58:52.176Z,330.79
2022-12-20T05:03:59.453Z,331.53
2022-12-20T05:09:06.584Z,332.24
2022-12-20T05:14:13.797Z,331.84
2022-12-20T05:19:21.093Z,333.21
2022-12-20T05:24:28.305Z,333.06
2022-12-20T05:29:35.534Z,333.77
2022-12-20T05:34:42.798Z,333.49
2022-12-20T05:39:49.883Z,334.03
2022-12-20T05:44:57.052Z,333.24
2022-12-20T05:50:04.240Z,333.57
2022-12-20T05:55:11.394Z,335.32
2022-12-20T06:00:18.623Z,334.88
2022-12-20T06:05:25.853Z,333.96
2022-12-20T06:10:33.024Z,334.96
2022-12-20T06:15:40.212Z,335.11
2022-12-20T06:20:47.387Z,334.90
2022-12-20T06:25:54.519Z,335.70
2022-12-20T06:31:01.730Z,335.59
2022-12-20T06:36:08.976Z,335.36
2022-12-20T06:41:16.172Z,335.44
2022-12-20T06:46:23.429Z,335.50
2022-12-20T06:51:30.585Z,336.89
2022-12-20T06:56:41.444Z,337.11
2022-12-20T07:01:45.312Z,337.43
2022-12-20T07:06:52.219Z,337.39
2022-12-20T07:11:59.407Z,337.93
2022-12-20T07:17:06.687Z,337.54
2022-12-20T07:22:13.829Z,336.60
2022-12-20T07:27:21.002Z,336.80
2022-12-20T07:32:28.201Z,337.03
2022-12-20T07:37:35.479Z,337.31
2022-12-20T07:42:48.239Z,337.74
2022-12-20T07:47:49.896Z,337.70
2022-12-20T07:52:57.142Z,336.42
2022-12-20T07:58:04.265Z,334.75
2022-12-20T08:03:11.678Z,335.25
2022-12-20T08:08:18.770Z,336.14
2022-12-20T08:13:25.941Z,336.82
2022-12-20T08:18:33.083Z,336.35
2022-12-20T08:23:40.362Z,335.93
2022-12-20T08:28:47.591Z,337.37
2022-12-20T08:33:54.844Z,336.94
2022-12-20T08:39:02.039Z,336.70
2022-12-20T08:44:09.167Z,337.80
2022-12-20T08:49:16.345Z,339.03
2022-12-20T08:54:23.651Z,337.42
2022-12-20T08:59:31.047Z,338.07
2022-12-20T09:04:38.251Z,338.23
2022-12-20T09:09:45.505Z,338.12
2022-12-20T09:14:52.699Z,339.09
2022-12-20T09:19:59.934Z,339.79
2022-12-20T09:25:07.229Z,340.21
2022-12-20T09:30:14.409Z,340.09
2022-12-20T09:35:23.511Z,340.16
2022-12-20T09:40:28.847Z,340.56
2022-12-20T09:45:36.030Z,340.01
2022-12-20T09:50:43.306Z,340.41
2022-12-20T09:55:50.564Z,340.53
2022-12-20T10:00:57.797Z,341.34
2022-12-20T10:06:05.211Z,341.99
2022-12-20T10:11:12.278Z,342.54
2022-12-20T10:16:19.555Z,343.64
2022-12-20T10:21:26.634Z,343.83
2022-12-20T10:26:33.905Z,343.99
2022-12-20T10:31:41.121Z,345.02
2022-12-20T10:36:48.206Z,344.77
2022-12-20T10:41:55.546Z,345.17
2022-12-20T10:47:02.759Z,345.76
2022-12-20T10:52:09.893Z,345.70
2022-12-20T10:57:17.080Z,346.86
2022-12-20T11:02:24.466Z,347.77
2022-12-20T11:07:31.491Z,347.73
2022-12-20T11:12:38.691Z,348.48
2022-12-20T11:17:45.875Z,350.53
2022-12-20T11:22:53.120Z,350.85
2022-12-20T11:28:00.340Z,350.81
2022-12-20T11:33:07.519Z,351.00
2022-12-20T11:38:14.808Z,351.95
2022-12-20T11:43:22.069Z,353.65
2022-12-20T11:48:29.237Z,354.45
2022-12-20T11:53:36.432Z,354.90
2022-12-20T11:58:43.688Z,356.33
2022-12-20T12:03:50.849Z,358.55
2022-12-20T12:08:58.084Z,358.74
2022-12-20T12:14:05.286Z,360.27
2022-12-20T12:19:12.715Z,361.47
2022-12-20T12:24:19.633Z,361.59
2022-12-20T12:29:26.878Z,361.04
2022-12-20T12:34:34.082Z,361.70
2022-12-20T12:39:41.300Z,362.63
2022-12-20T12:44:48.521Z,362.17
2022-12-20T12:49:55.671Z,362.92
2022-12-20T12:55:02.840Z,362.98
2022-12-20T13:00:10.027Z,363.23
2022-12-20T13:05:23.990Z,362.78
2022-12-20T13:10:24.603Z,363.72
2022-12-20T13:15:31.862Z,363.35
2022-12-20T13:20:39.034Z,362.53
2022-12-20T13:25:46.216Z,361.81
2022-12-20T13:30:53.536Z,360.62
2022-12-20T13:36:00.630Z,360.83
2022-12-20T13:41:07.887Z,361.11
2022-12-20T13:46:15.104Z,362.31
2022-12-20T13:51:22.300Z,361.09
2022-12-20T13:56:29.719Z,359.89
2022-12-20T14:01:37.135Z,359.13
2022-12-20T14:06:44.161Z,359.41
2022-12-20T14:11:51.369Z,359.97
2022-12-20T14:16:58.826Z,359.66
2022-12-20T14:22:05.765Z,359.49
2022-12-20T14:27:12.978Z,360.67
2022-12-20T14:32:20.220Z,360.60
2022-12-20T14:37:27.386Z,359.67
2022-12-20T14:42:34.553Z,358.28
2022-12-20T14:47:41.812Z,358.65
2022-12-20T14:52:49.050Z,359.12
2022-12-20T14:57:56.242Z,360.35
2022-12-20T15:03:03.749Z,361.67
2022-12-20T15:08:10.670Z,361.83
2022-12-20T15:13:17.935Z,362.22
2022-12-20T15:18:25.170Z,362.22
2022-12-20T15:23:32.382Z,362.62
2022-12-20T15:28:39.559Z,363.36
2022-12-20T15:33:46.858Z,362.72
2022-12-20T15:39:12.150Z,362.52
2022-12-20T15:44:01.355Z,362.81
2022-12-20T15:49:08.652Z,362.96
2022-12-20T15:54:15.890Z,363.80
2022-12-20T16:04:30.540Z,364.26
2022-12-20T16:09:37.667Z,365.40
2022-12-20T16:14:44.938Z,365.67
2022-12-20T16:19:52.700Z,365.23
2022-12-20T16:24:59.845Z,364.60
2022-12-20T16:30:07.075Z,363.06
2022-12-20T16:35:14.308Z,363.18
2022-12-20T16:40:21.466Z,365.20
2022-12-20T16:45:28.657Z,364.39
2022-12-20T16:50:35.855Z,364.68
2022-12-20T16:55:43.030Z,363.74
2022-12-20T17:00:50.322Z,363.80
2022-12-20T17:05:57.492Z,365.06
2022-12-20T17:11:04.690Z,364.77
2022-12-20T17:16:11.924Z,365.47
2022-12-20T17:21:19.095Z,363.32
2022-12-20T17:26:26.225Z,363.86
2022-12-20T17:31:33.535Z,366.32
2022-12-20T17:36:40.701Z,366.95
2022-12-20T17:41:47.925Z,367.23
2022-12-20T17:46:55.081Z,367.15
2022-12-20T17:52:02.316Z,367.76
2022-12-20T17:57:09.457Z,367.57
2022-12-20T18:02:16.837Z,367.77
2022-12-20T18:07:23.840Z,369.27
2022-12-20T18:12:35.731Z,370.32
2022-12-20T18:17:38.293Z,370.81
2022-12-20T18:22:45.483Z,370.60
2022-12-20T18:27:52.925Z,370.57
2022-12-20T18:33:00.134Z,370.95
2022-12-20T18:38:07.317Z,370.08
2022-12-20T18:43:14.844Z,368.79
2022-12-20T18:48:22.461Z,369.64
2022-12-20T18:53:29.810Z,370.51
2022-12-20T18:58:37.270Z,370.86
2022-12-20T19:03:44.590Z,370.13
2022-12-20T19:08:52.007Z,370.03
2022-12-20T19:13:59.603Z,370.84
2022-12-20T19:19:06.971Z,371.87
2022-12-20T19:24:14.264Z,371.61
2022-12-20T19:29:21.570Z,373.19
2022-12-20T19:34:28.971Z,374.09
2022-12-20T19:39:36.270Z,374.17
2022-12-20T19:44:43.471Z,375.65
2022-12-20T19:49:50.896Z,375.53
2022-12-20T19:54:58.494Z,375.97
2022-12-20T20:00:06.091Z,375.42
2022-12-20T20:05:15.376Z,376.22
2022-12-20T20:10:20.628Z,374.73
2022-12-20T20:15:28.178Z,373.13
2022-12-20T20:20:35.538Z,374.86
2022-12-20T20:25:43.051Z,373.02
2022-12-20T20:30:50.663Z,373.74
2022-12-20T20:35:58.006Z,373.76
2022-12-20T20:41:05.315Z,374.25
2022-12-20T20:46:12.575Z,374.63
2022-12-20T20:51:19.699Z,374.35
2022-12-20T20:56:27.026Z,373.49
2022-12-20T21:01:34.423Z,374.22
2022-12-20T21:06:42.159Z,373.35
2022-12-20T21:11:48.846Z,374.05
2022-12-20T21:16:55.913Z,373.82
2022-12-20T21:22:03.101Z,373.75
2022-12-20T21:27:10.437Z,374.34
2022-12-20T21:32:17.574Z,374.26
2022-12-20T21:37:24.729Z,373.92
2022-12-20T21:42:31.971Z,373.26
2022-12-20T21:47:39.174Z,373.03
2022-12-20T21:52:46.438Z,372.43
2022-12-20T21:57:53.678Z,372.12
2022-12-20T22:03:00.978Z,372.54
2022-12-20T22:08:08.146Z,371.22
2022-12-20T22:13:15.393Z,371.57
2022-12-20T22:18:22.621Z,372.45
2022-12-20T22:23:29.876Z,372.33
2022-12-20T22:28:37.198Z,371.19
2022-12-20T22:33:44.408Z,371.45
2022-12-20T22:38:51.581Z,372.03
2022-12-20T22:43:58.852Z,370.61
2022-12-20T22:49:05.995Z,369.75
2022-12-20T22:54:13.200Z,369.62
2022-12-20T22:59:20.412Z,369.86
2022-12-20T23:04:27.587Z,370.70
2022-12-20T23:09:34.794Z,370.91
2022-12-20T23:14:42.078Z,370.98
2022-12-20T23:19:49.200Z,370.61
2022-12-20T23:24:56.353Z,371.85
2022-12-20T23:30:03.555Z,372.34
2022-12-20T23:35:12.829Z,371.96
2022-12-20T23:40:18.025Z,372.50
2022-12-20T23:45:25.212Z,372.02
2022-12-20T23:50:32.331Z,372.44
2022-12-20T23:55:39.530Z,372.88
